Shepherd's Bush, United Kingdom
Current Conditions -  °F | °C
As of 11:50 AM on Monday 20 Oct 2014 (Local Time) from EGWU Reporting Station
Scattered Clouds Scattered Clouds  
Wind Chill: 61°   Ceiling: Unl
Heat Index: 61°   Visibility: 6mi
Dew Point: 50°   Wind: 13mph
Humidity: 68%   Direction: 250°WSW
Pressure: 30"   Gusts: NA
Location:  51.51°N, 0.24°W
Report Text: EGWU 201050Z 25011KT 9999 SCT022 16/10 Q1016 WHT BECMG SCT025 BLU
Loading
Personal Weather Stations






























Interactive Weather Map New forecast layout! Learn more

10-Day Weather Forecast

Advertisements
Track Severe Weather on mobile